Walthamstow, United Kingdom
Current Conditions -  °F | °C
As of 12:50 AM on Saturday 25 Oct 2014 (Local Time) from EGLC Reporting Station
Clear Clear  
Wind Chill: 54°   Ceiling: Unl
Heat Index: 54°   Visibility: 6mi
Dew Point: 48°   Wind: 5mph
Humidity: 82%   Direction: 290°WNW
Pressure: 30"   Gusts: NA
Location:  51.58°N, 0.02°W
Report Text: EGLC 242350Z AUTO 29004KT 9999 NCD 12/09 Q1016
Loading
Personal Weather Stations






























Interactive Weather Map
Tropical Storm Tracking
New forecast layout! Learn more

10-Day Weather Forecast

Advertisements
Track Severe Weather on mobile